メインページ
METAR-TAF:

METAR-TAF

空港 :

ムルマンスク, ロシア

緯度: 68-58N, 経度: 033-03E, 海抜: 51m

現時点の気象観測

当レポートは18分前の23:00(UTC)に作成
西の風 4kt
気温 0°C
湿度 80%
気圧 1019 hPa
視程10km以上
高度1200ftの千切れ雲あり, 積乱雲.

METAR: ULMM 272300Z 28002MPS 9999 BKN012CB M00/M03 Q1019 R31/090070 NOSIG RMK QFE757

時間: 02:18 (23:18 UTC)

予報

当レポートは3時間27分前の19:51(UTC)に作成
予報は27日の 21時(UTC)から 28日の 21時(UTC)まで有効
西/北西の風 6kt
視程10km以上
高度2000ftの雲は散在している
27日の 21時(UTC)から 28日の 10時(UTC)まで一時的に
西の風 6kt、最大16ktの突風を伴う
高度2000ftの千切れ雲あり, 積乱雲.
弱いにわか雪
28日の 10時(UTC)から 28日の 12時(UTC)まで徐々に
北東の風 6kt、最大16ktの突風を伴う
高度1500ftの千切れ雲あり
28日の 12時(UTC)から 28日の 19時(UTC)まで一時的に
の風 6kt、最大16ktの突風を伴う
高度1500ftの千切れ雲あり, 積乱雲.
弱いにわか雪, 雨
28日の 19時(UTC)から 28日の 21時(UTC)まで徐々に
の風 6kt、最大17ktの突風を伴う
高度1100ftの千切れ雲あり
高度1500ftの千切れ雲あり

TAF: ULMM 271951Z 2721/2821 29003MPS 9999 SCT020 TEMPO 2721/2810 26003G08MPS -SHSN BKN020CB BECMG 2810/2812 05003G08MPS BKN015 TEMPO 2812/2819 09003G08MPS -SHSNRA BKN015CB BECMG 2819/2821 36003G09MPS BKN011 BKN015

4,000以上の空港の気象観測と天気予報(METAR報とTAF報)

利用可能な観測所は地図上に黄色い丸と赤い丸で示す。

丸の上にカーソルを重ねると観測所名を参照できる。

次にクリックすると気象観測と天気予報を参照できる。

マップの切り替え:黒色「×」印の緑ボタンをクリックして拡大、「-」印の緑ボタンをクリックして縮小、緑色の三角印をクリックして隣りの地図に切り替え


METAR-TAF: